Rheinfels — V2AI4 — position and weather

sailwx.info

Track history (hours):
 
Tides and Currents Weather Stations Pressure Air Temp Water Temp Dewpoint Dewpoint Depression Visibility Wind Speed Wind Dir Waves Ship Positions

Rheinfels

Last reported at 2014-Oct-31 20:29 UTC. Time now 2014-Nov-01 11:12 UTC.
Position N 43°08' E 009°41'.

Length 89 m; draft 5.4 m.

Type: Cargo ship. MMSI: 304010767.

Date/timePositionNaut miles runAvg speedWind from/ knotsBaromVisibWave heightAir tempDewpointWater temp
2014-Oct-31 20:29N 43°08' E 009°41'9 9.6
2014-Oct-31 19:33N 43°16' E 009°42'10 9.7
2014-Oct-31 18:33N 43°26' E 009°45'10 9.7
2014-Oct-31 17:33N 43°36' E 009°47'9 9.1
2014-Oct-31 16:33N 43°44' E 009°50'9 9.3
2014-Oct-31 15:33N 43°52' E 009°56'9 9.4
2014-Oct-31 14:33N 44°00' E 010°03'2 1.6
2014-Oct-31 13:33N 44°02' E 010°03'0 0.0
2014-Oct-31 12:33N 44°02' E 010°03'0 0.0
2014-Oct-31 11:32N 44°02' E 010°03'0 0.0
2014-Oct-31 10:32N 44°02' E 010°03'0 0.0
2014-Oct-31 09:32N 44°02' E 010°03'0 0.0
2014-Oct-31 08:32N 44°02' E 010°03'0 0.0
2014-Oct-31 07:32N 44°02' E 010°03'0 0.0
2014-Oct-31 06:32N 44°02' E 010°03'0 0.0
2014-Oct-31 05:32N 44°02' E 010°03'0 0.0
2014-Oct-31 04:29N 44°02' E 010°03'0 0.0
2014-Oct-31 03:32N 44°02' E 010°03'0 0.0
2014-Oct-31 02:32N 44°02' E 010°03'0 0.0
2014-Oct-31 01:32N 44°02' E 010°03'0 0.0
2014-Oct-31 00:32N 44°02' E 010°03'0 0.0
2014-Oct-30 23:32N 44°02' E 010°03'0 0.0
2014-Oct-30 22:32N 44°02' E 010°03'0 0.0
2014-Oct-30 21:32N 44°02' E 010°03'0 0.0
2014-Oct-30 20:32N 44°02' E 010°03'0 0.0
2014-Oct-30 19:32N 44°02' E 010°03'0 0.0
2014-Oct-30 18:32N 44°02' E 010°03'0 0.0
2014-Oct-30 17:32N 44°02' E 010°03'0 0.0
2014-Oct-30 16:32N 44°02' E 010°03'0 0.0
2014-Oct-30 15:32N 44°02' E 010°03'0 0.0
2014-Oct-30 14:32N 44°02' E 010°03'0 0.0
2014-Oct-30 13:32N 44°02' E 010°03'0 0.0
2014-Oct-30 12:32N 44°02' E 010°03'0 0.0
2014-Oct-30 11:32N 44°02' E 010°03'0 0.0
2014-Oct-30 10:32N 44°02' E 010°03'0 0.0
2014-Oct-30 09:29N 44°02' E 010°03'0 0.0
2014-Oct-30 08:32N 44°02' E 010°03'0 0.0
2014-Oct-30 07:32N 44°02' E 010°03'0 0.0
2014-Oct-30 06:32N 44°02' E 010°03'0 0.0
2014-Oct-30 05:29N 44°02' E 010°03'0 0.0
2014-Oct-30 04:32N 44°02' E 010°03'0 0.0
2014-Oct-30 03:32N 44°02' E 010°03'0 0.0
2014-Oct-30 02:32N 44°02' E 010°03'0 0.0
2014-Oct-30 01:32N 44°02' E 010°03'0 0.0
2014-Oct-30 00:32N 44°02' E 010°03'0 0.0
2014-Oct-29 23:32N 44°02' E 010°03'0 0.0
2014-Oct-29 22:32N 44°02' E 010°03'0 0.0
2014-Oct-29 21:32N 44°02' E 010°03'0 0.0
2014-Oct-29 20:32N 44°02' E 010°03'0 0.0
2014-Oct-29 19:32N 44°02' E 010°03'0 0.0
2014-Oct-29 18:32N 44°02' E 010°03'0 0.0
2014-Oct-29 17:32N 44°02' E 010°03'1 1.3
2014-Oct-29 16:33N 44°01' E 010°02'0 0.2
2014-Oct-29 15:33N 44°01' E 010°01'5 5.3
2014-Oct-29 14:33N 44°00' E 009°54'1110.7
2014-Oct-29 13:33N 44°00' E 009°39'1110.6
2014-Oct-29 12:33N 44°04' E 009°25'1110.9
2014-Oct-29 11:33N 44°08' E 009°11'1110.9
2014-Oct-29 10:33N 44°12' E 008°57'1311.0
2014-Oct-29 09:20N 44°16' E 008°40'7 2.7
2014-Oct-29 06:33N 44°19' E 008°30'0 0.0
2014-Oct-29 04:03N 44°19' E 008°30'0 0.0
2014-Oct-29 03:30N 44°19' E 008°30'0 0.0
2014-Oct-29 02:24N 44°19' E 008°30'0 0.0
2014-Oct-29 01:33N 44°19' E 008°30'0 0.0
2014-Oct-29 00:33N 44°19' E 008°30'0 0.0
2014-Oct-28 22:27N 44°19' E 008°30'0 0.0
2014-Oct-28 20:03N 44°19' E 008°30'0 0.0
2014-Oct-28 19:33N 44°19' E 008°30'0 0.0
2014-Oct-28 18:30N 44°19' E 008°30'0 0.0
2014-Oct-28 16:09N 44°19' E 008°30'0 0.0
2014-Oct-28 15:27N 44°19' E 008°30'0 0.0
2014-Oct-28 10:24N 44°19' E 008°30'0 0.0
2014-Oct-28 07:27N 44°19' E 008°30'0 0.0
2014-Oct-27 19:30N 44°19' E 008°30'0 0.0
2014-Oct-27 11:27N 44°19' E 008°30'0 0.0
2014-Oct-27 07:33N 44°19' E 008°30'1 0.2
2014-Oct-27 03:31N 44°18' E 008°30'0 0.0
2014-Oct-27 01:31N 44°18' E 008°30'0 0.0
2014-Oct-27 00:25N 44°18' E 008°30'0 0.0
2014-Oct-26 20:04N 44°18' E 008°30'0 0.0
2014-Oct-26 19:31N 44°18' E 008°30'0 0.0
2014-Oct-26 16:16N 44°18' E 008°30'0 0.0
2014-Oct-26 15:22N 44°18' E 008°30'0 0.0
2014-Oct-26 14:31N 44°18' E 008°30'0 0.0
2014-Oct-26 11:31N 44°18' E 008°30'0 0.0
2014-Oct-26 08:28N 44°18' E 008°30'0 0.0
2014-Oct-26 07:31N 44°18' E 008°30'0 0.0
2014-Oct-26 04:04N 44°18' E 008°30'0 0.0
2014-Oct-26 03:28N 44°18' E 008°30'0 0.0
2014-Oct-26 02:31N 44°18' E 008°30'0 0.0
2014-Oct-26 01:31N 44°18' E 008°30'0 0.0
2014-Oct-26 00:31N 44°18' E 008°30'0 0.0
2014-Oct-25 23:22N 44°18' E 008°30'0 0.0
2014-Oct-25 22:22N 44°18' E 008°30'0 0.0
2014-Oct-25 19:25N 44°18' E 008°30'0 0.0
2014-Oct-25 16:07N 44°18' E 008°30'0 0.0
2014-Oct-25 15:04N 44°18' E 008°30'0 0.0
2014-Oct-25 11:22N 44°18' E 008°30'0 0.0
2014-Oct-25 10:22N 44°18' E 008°30'0 0.0
2014-Oct-25 08:31N 44°18' E 008°30'0 0.0
2014-Oct-25 07:22N 44°18' E 008°30'0 0.0
2014-Oct-25 06:25N 44°18' E 008°30'0 0.0
2014-Oct-25 05:16N 44°18' E 008°30'0 0.0
2014-Oct-25 04:19N 44°18' E 008°30'0 0.0
2014-Oct-25 03:31N 44°18' E 008°30'0 0.0
2014-Oct-25 02:22N 44°18' E 008°30'0 0.0
2014-Oct-25 01:28N 44°18' E 008°30'0 0.0
2014-Oct-25 00:22N 44°18' E 008°30'0 0.0
2014-Oct-24 23:31N 44°18' E 008°30'0 0.0
2014-Oct-24 19:31N 44°18' E 008°30'0 0.0
2014-Oct-24 16:13N 44°18' E 008°30'0 0.0
2014-Oct-24 15:28N 44°18' E 008°30'0 0.1
2014-Oct-24 14:08N 44°18' E 008°30'18 9.5
2014-Oct-24 12:13N 44°03' E 008°43'710.8
2014-Oct-24 11:33N 43°56' E 008°48'1110.7
2014-Oct-24 10:33N 43°47' E 008°56'1110.7
2014-Oct-24 09:33N 43°38' E 009°03'1010.4
2014-Oct-24 08:33N 43°29' E 009°10'10 9.7
2014-Oct-24 07:33N 43°20' E 009°16'10 9.6
2014-Oct-24 06:32N 43°12' E 009°22'  
2014-Oct-21 21:33N 38°15' E 015°39'  
Track history (hours):
 
Tides and Currents Weather Stations Pressure Air Temp Water Temp Dewpoint Dewpoint Depression Visibility Wind Speed Wind Dir Waves Ship Positions

Rheinfels

Last reported at 2014-Oct-31 20:29 UTC. Time now 2014-Nov-01 11:12 UTC.
Position N 43°08' E 009°41'.

Length 89 m; draft 5.4 m.

Type: Cargo ship. MMSI: 304010767.

Date/timePositionNaut miles runAvg speedWind from/ knotsBaromVisibWave heightAir tempDewpointWater temp
2014-Oct-31 20:29N 43°08' E 009°41'9 9.6
2014-Oct-31 19:33N 43°16' E 009°42'10 9.7
2014-Oct-31 18:33N 43°26' E 009°45'10 9.7
2014-Oct-31 17:33N 43°36' E 009°47'9 9.1
2014-Oct-31 16:33N 43°44' E 009°50'9 9.3
2014-Oct-31 15:33N 43°52' E 009°56'9 9.4
2014-Oct-31 14:33N 44°00' E 010°03'2 1.6
2014-Oct-31 13:33N 44°02' E 010°03'0 0.0
2014-Oct-31 12:33N 44°02' E 010°03'0 0.0
2014-Oct-31 11:32N 44°02' E 010°03'0 0.0
2014-Oct-31 10:32N 44°02' E 010°03'0 0.0
2014-Oct-31 09:32N 44°02' E 010°03'0 0.0
2014-Oct-31 08:32N 44°02' E 010°03'0 0.0
2014-Oct-31 07:32N 44°02' E 010°03'0 0.0
2014-Oct-31 06:32N 44°02' E 010°03'0 0.0
2014-Oct-31 05:32N 44°02' E 010°03'0 0.0
2014-Oct-31 04:29N 44°02' E 010°03'0 0.0
2014-Oct-31 03:32N 44°02' E 010°03'0 0.0
2014-Oct-31 02:32N 44°02' E 010°03'0 0.0
2014-Oct-31 01:32N 44°02' E 010°03'0 0.0
2014-Oct-31 00:32N 44°02' E 010°03'0 0.0
2014-Oct-30 23:32N 44°02' E 010°03'0 0.0
2014-Oct-30 22:32N 44°02' E 010°03'0 0.0
2014-Oct-30 21:32N 44°02' E 010°03'0 0.0
2014-Oct-30 20:32N 44°02' E 010°03'0 0.0
2014-Oct-30 19:32N 44°02' E 010°03'0 0.0
2014-Oct-30 18:32N 44°02' E 010°03'0 0.0
2014-Oct-30 17:32N 44°02' E 010°03'0 0.0
2014-Oct-30 16:32N 44°02' E 010°03'0 0.0
2014-Oct-30 15:32N 44°02' E 010°03'0 0.0
2014-Oct-30 14:32N 44°02' E 010°03'0 0.0
2014-Oct-30 13:32N 44°02' E 010°03'0 0.0
2014-Oct-30 12:32N 44°02' E 010°03'0 0.0
2014-Oct-30 11:32N 44°02' E 010°03'0 0.0
2014-Oct-30 10:32N 44°02' E 010°03'0 0.0
2014-Oct-30 09:29N 44°02' E 010°03'0 0.0
2014-Oct-30 08:32N 44°02' E 010°03'0 0.0
2014-Oct-30 07:32N 44°02' E 010°03'0 0.0
2014-Oct-30 06:32N 44°02' E 010°03'0 0.0
2014-Oct-30 05:29N 44°02' E 010°03'0 0.0
2014-Oct-30 04:32N 44°02' E 010°03'0 0.0
2014-Oct-30 03:32N 44°02' E 010°03'0 0.0
2014-Oct-30 02:32N 44°02' E 010°03'0 0.0
2014-Oct-30 01:32N 44°02' E 010°03'0 0.0
2014-Oct-30 00:32N 44°02' E 010°03'0 0.0
2014-Oct-29 23:32N 44°02' E 010°03'0 0.0
2014-Oct-29 22:32N 44°02' E 010°03'0 0.0
2014-Oct-29 21:32N 44°02' E 010°03'0 0.0
2014-Oct-29 20:32N 44°02' E 010°03'0 0.0
2014-Oct-29 19:32N 44°02' E 010°03'0 0.0
2014-Oct-29 18:32N 44°02' E 010°03'0 0.0
2014-Oct-29 17:32N 44°02' E 010°03'1 1.3
2014-Oct-29 16:33N 44°01' E 010°02'0 0.2
2014-Oct-29 15:33N 44°01' E 010°01'5 5.3
2014-Oct-29 14:33N 44°00' E 009°54'1110.7
2014-Oct-29 13:33N 44°00' E 009°39'1110.6
2014-Oct-29 12:33N 44°04' E 009°25'1110.9
2014-Oct-29 11:33N 44°08' E 009°11'1110.9
2014-Oct-29 10:33N 44°12' E 008°57'1311.0
2014-Oct-29 09:20N 44°16' E 008°40'7 2.7
2014-Oct-29 06:33N 44°19' E 008°30'0 0.0
2014-Oct-29 04:03N 44°19' E 008°30'0 0.0
2014-Oct-29 03:30N 44°19' E 008°30'0 0.0
2014-Oct-29 02:24N 44°19' E 008°30'0 0.0
2014-Oct-29 01:33N 44°19' E 008°30'0 0.0
2014-Oct-29 00:33N 44°19' E 008°30'0 0.0
2014-Oct-28 22:27N 44°19' E 008°30'0 0.0
2014-Oct-28 20:03N 44°19' E 008°30'0 0.0
2014-Oct-28 19:33N 44°19' E 008°30'0 0.0
2014-Oct-28 18:30N 44°19' E 008°30'0 0.0
2014-Oct-28 16:09N 44°19' E 008°30'0 0.0
2014-Oct-28 15:27N 44°19' E 008°30'0 0.0
2014-Oct-28 10:24N 44°19' E 008°30'0 0.0
2014-Oct-28 07:27N 44°19' E 008°30'0 0.0
2014-Oct-27 19:30N 44°19' E 008°30'0 0.0
2014-Oct-27 11:27N 44°19' E 008°30'0 0.0
2014-Oct-27 07:33N 44°19' E 008°30'1 0.2
2014-Oct-27 03:31N 44°18' E 008°30'0 0.0
2014-Oct-27 01:31N 44°18' E 008°30'0 0.0
2014-Oct-27 00:25N 44°18' E 008°30'0 0.0
2014-Oct-26 20:04N 44°18' E 008°30'0 0.0
2014-Oct-26 19:31N 44°18' E 008°30'0 0.0
2014-Oct-26 16:16N 44°18' E 008°30'0 0.0
2014-Oct-26 15:22N 44°18' E 008°30'0 0.0
2014-Oct-26 14:31N 44°18' E 008°30'0 0.0
2014-Oct-26 11:31N 44°18' E 008°30'0 0.0
2014-Oct-26 08:28N 44°18' E 008°30'0 0.0
2014-Oct-26 07:31N 44°18' E 008°30'0 0.0
2014-Oct-26 04:04N 44°18' E 008°30'0 0.0
2014-Oct-26 03:28N 44°18' E 008°30'0 0.0
2014-Oct-26 02:31N 44°18' E 008°30'0 0.0
2014-Oct-26 01:31N 44°18' E 008°30'0 0.0
2014-Oct-26 00:31N 44°18' E 008°30'0 0.0
2014-Oct-25 23:22N 44°18' E 008°30'0 0.0
2014-Oct-25 22:22N 44°18' E 008°30'0 0.0
2014-Oct-25 19:25N 44°18' E 008°30'0 0.0
2014-Oct-25 16:07N 44°18' E 008°30'0 0.0
2014-Oct-25 15:04N 44°18' E 008°30'0 0.0
2014-Oct-25 11:22N 44°18' E 008°30'0 0.0
2014-Oct-25 10:22N 44°18' E 008°30'0 0.0
2014-Oct-25 08:31N 44°18' E 008°30'0 0.0
2014-Oct-25 07:22N 44°18' E 008°30'0 0.0
2014-Oct-25 06:25N 44°18' E 008°30'0 0.0
2014-Oct-25 05:16N 44°18' E 008°30'0 0.0
2014-Oct-25 04:19N 44°18' E 008°30'0 0.0
2014-Oct-25 03:31N 44°18' E 008°30'0 0.0
2014-Oct-25 02:22N 44°18' E 008°30'0 0.0
2014-Oct-25 01:28N 44°18' E 008°30'0 0.0
2014-Oct-25 00:22N 44°18' E 008°30'0 0.0
2014-Oct-24 23:31N 44°18' E 008°30'0 0.0
2014-Oct-24 19:31N 44°18' E 008°30'0 0.0
2014-Oct-24 16:13N 44°18' E 008°30'0 0.0
2014-Oct-24 15:28N 44°18' E 008°30'0 0.1
2014-Oct-24 14:08N 44°18' E 008°30'18 9.5
2014-Oct-24 12:13N 44°03' E 008°43'710.8
2014-Oct-24 11:33N 43°56' E 008°48'1110.7
2014-Oct-24 10:33N 43°47' E 008°56'1110.7
2014-Oct-24 09:33N 43°38' E 009°03'1010.4
2014-Oct-24 08:33N 43°29' E 009°10'10 9.7
2014-Oct-24 07:33N 43°20' E 009°16'10 9.6
2014-Oct-24 06:32N 43°12' E 009°22'  
2014-Oct-21 21:33N 38°15' E 015°39'  

Dump ship's entire track history